SAN BERNARDINO INTERNATIONAL AIRPORT (SBD)

2024 JUL 1215:51Z
Elevation1159 Ft
Temperature24C 75F
Dew Point16C 60F
Altimeter29.94 inHg
Relative Humidity60%
Wind320 DEG 03 KTS
SkyClear Below 12,000 Ft
Visibility7 SM
Present Weatherclear
METAR KSBD 121539Z AUTO 32004KT 7SM CLR 23/15 A2994 RMK AO2

For up-to-the-minute weather information at SBD, call onsite AWOS at (909) 382-0067.

[iframe src=”https://www.anyawos.com/KSBD” width=”100%” height=”600″]